Time;durP1;ratioP1;P1;durP2;ratioP2;P2;SDS_P1;SDS_P2;PMS_P1;PMS_P2;Temp;Humidity;BMP_temperature;BMP_pressure;BME280_temperature;BME280_humidity;BME280_pressure;Samples;Min_cycle;Max_cycle;Signal;HPM_P1;HPM_P2
2022/07/19 04:14:41;;;;;;;;;;;26.10;42.50;;;;;;5471708;23;19933;-78
2022/07/19 04:17:07;;;;;;;;;;;26.10;42.60;;;;;;4997880;28;20367;-80
2022/07/19 04:19:35;;;;;;;;;;;26.10;42.60;;;;;;5004594;28;19953;-79
2022/07/19 04:22:01;;;;;;;;;;;26.10;42.60;;;;;;4999874;28;19925;-78
2022/07/19 04:24:28;;;;;;;;;;;26.10;42.60;;;;;;4997100;28;19933;-78
2022/07/19 04:26:55;;;;;;;;;;;26.10;42.70;;;;;;4995456;28;19930;-77
2022/07/19 04:29:21;;;;;;;;;;;26.00;42.60;;;;;;4996712;28;20389;-77
2022/07/19 04:31:49;;;;;;;;;;;26.00;42.50;;;;;;4997985;28;20413;-77
2022/07/19 04:34:16;;;;;;;;;;;26.00;42.40;;;;;;4995875;28;20028;-77
2022/07/19 04:36:43;;;;;;;;;;;26.00;42.40;;;;;;4995423;28;19972;-77
2022/07/19 04:39:10;;;;;;;;;;;26.00;42.30;;;;;;4995050;28;19926;-77
2022/07/19 04:41:36;;;;;;;;;;;25.90;42.00;;;;;;4995554;28;19926;-77
2022/07/19 04:44:03;;;;;;;;;;;25.90;41.90;;;;;;4995177;28;19926;-76
2022/07/19 04:46:30;;;;;;;;;;;25.90;41.80;;;;;;4995278;28;20346;-78
2022/07/19 04:48:58;;;;;;;;;;;25.90;41.80;;;;;;4994848;28;19973;-76
2022/07/19 04:51:24;;;;;;;;;;;25.90;41.90;;;;;;4994593;28;20029;-76
2022/07/19 04:53:51;;;;;;;;;;;25.90;41.80;;;;;;4994867;28;19925;-76
2022/07/19 04:56:18;;;;;;;;;;;25.90;41.80;;;;;;4995106;28;20012;-75
2022/07/19 04:58:44;;;;;;;;;;;25.80;41.80;;;;;;4995075;28;19925;-75
2022/07/19 05:01:11;;;;;;;;;;;25.80;41.80;;;;;;4995795;28;19926;-75
2022/07/19 05:03:38;;;;;;;;;;;25.80;41.70;;;;;;4995095;28;19973;-77
2022/07/19 05:06:06;;;;;;;;;;;25.80;41.50;;;;;;4994915;28;19973;-77
2022/07/19 05:08:33;;;;;;;;;;;25.80;42.00;;;;;;4997973;28;19989;-75
2022/07/19 05:10:59;;;;;;;;;;;25.80;41.30;;;;;;4997866;28;20025;-74
2022/07/19 05:13:26;;;;;;;;;;;25.80;41.20;;;;;;4996165;28;19932;-75
2022/07/19 05:15:53;;;;;;;;;;;25.80;41.10;;;;;;4997597;28;20021;-74
2022/07/19 05:18:19;;;;;;;;;;;25.80;41.00;;;;;;4999431;28;20016;-75
2022/07/19 05:20:46;;;;;;;;;;;25.80;40.90;;;;;;4999092;28;20020;-75
2022/07/19 05:23:14;;;;;;;;;;;25.80;40.80;;;;;;4998518;28;19961;-75
2022/07/19 05:25:40;;;;;;;;;;;25.80;40.70;;;;;;4998562;28;20021;-75
2022/07/19 05:28:08;;;;;;;;;;;25.80;40.70;;;;;;4998162;28;19968;-74
2022/07/19 05:30:34;;;;;;;;;;;25.80;40.60;;;;;;4997286;28;19933;-74
2022/07/19 05:33:01;;;;;;;;;;;25.80;40.50;;;;;;4997555;28;20020;-74
2022/07/19 05:35:28;;;;;;;;;;;25.80;40.40;;;;;;4997560;28;20012;-74
2022/07/19 05:37:54;;;;;;;;;;;25.80;40.40;;;;;;4997230;28;20013;-74
2022/07/19 05:40:22;;;;;;;;;;;25.80;40.30;;;;;;4997015;28;19926;-74
2022/07/19 05:42:49;;;;;;;;;;;25.80;40.20;;;;;;4997113;28;20020;-74
2022/07/19 05:45:16;;;;;;;;;;;25.80;40.20;;;;;;4999391;28;20046;-74
2022/07/19 05:47:42;;;;;;;;;;;25.80;40.10;;;;;;5001427;28;19933;-74
2022/07/19 05:50:09;;;;;;;;;;;25.80;40.00;;;;;;5001345;28;19976;-74
2022/07/19 05:52:36;;;;;;;;;;;25.80;40.00;;;;;;5002981;28;20352;-74
2022/07/19 05:55:03;;;;;;;;;;;25.80;39.90;;;;;;5002286;28;20016;-75
2022/07/19 05:57:31;;;;;;;;;;;25.80;39.80;;;;;;5001642;28;19976;-74
2022/07/19 05:59:57;;;;;;;;;;;25.80;39.80;;;;;;5002217;28;20021;-75
2022/07/19 06:02:25;;;;;;;;;;;25.80;39.70;;;;;;5002226;28;20016;-74
2022/07/19 06:04:51;;;;;;;;;;;25.80;39.60;;;;;;5001281;28;19933;-74
2022/07/19 06:07:18;;;;;;;;;;;25.80;39.60;;;;;;5001423;28;19933;-74
2022/07/19 06:09:45;;;;;;;;;;;25.80;39.50;;;;;;5002305;28;19969;-74
2022/07/19 06:12:11;;;;;;;;;;;25.80;39.40;;;;;;5002869;28;19986;-74
2022/07/19 06:14:39;;;;;;;;;;;25.80;39.40;;;;;;5002242;28;19961;-74
2022/07/19 06:17:06;;;;;;;;;;;25.80;39.40;;;;;;5001441;28;19929;-74
2022/07/19 06:19:33;;;;;;;;;;;25.80;39.30;;;;;;5000824;28;19972;-74
2022/07/19 06:22:00;;;;;;;;;;;25.80;39.20;;;;;;5001227;28;20017;-74
2022/07/19 06:24:26;;;;;;;;;;;25.80;39.20;;;;;;5001399;28;20028;-74
2022/07/19 06:26:53;;;;;;;;;;;25.80;39.10;;;;;;5001302;28;20021;-74
2022/07/19 06:29:20;;;;;;;;;;;25.80;39.00;;;;;;5001296;28;19973;-75
2022/07/19 06:31:48;;;;;;;;;;;25.80;39.00;;;;;;5000502;28;20016;-74
2022/07/19 06:34:15;;;;;;;;;;;25.80;38.90;;;;;;5000772;28;19926;-74
2022/07/19 06:36:41;;;;;;;;;;;25.80;38.90;;;;;;5000949;28;19985;-74
2022/07/19 06:39:08;;;;;;;;;;;25.80;38.80;;;;;;5001330;28;20021;-74
2022/07/19 06:41:35;;;;;;;;;;;25.80;38.70;;;;;;4999411;28;20016;-75
2022/07/19 06:44:01;;;;;;;;;;;25.80;38.70;;;;;;4998101;28;19932;-76
2022/07/19 06:46:28;;;;;;;;;;;25.80;38.70;;;;;;4998260;28;19932;-76
2022/07/19 06:48:56;;;;;;;;;;;25.80;38.60;;;;;;4997470;28;20016;-76
2022/07/19 06:51:23;;;;;;;;;;;25.80;38.60;;;;;;4997184;28;19926;-76
2022/07/19 06:53:49;;;;;;;;;;;25.80;38.50;;;;;;4996981;28;20041;-76
2022/07/19 06:56:16;;;;;;;;;;;25.80;38.50;;;;;;4996742;28;19925;-76
2022/07/19 06:58:43;;;;;;;;;;;25.80;38.50;;;;;;4997306;28;19969;-76
2022/07/19 07:01:09;;;;;;;;;;;25.80;38.40;;;;;;4997267;28;19932;-76
2022/07/19 07:03:36;;;;;;;;;;;25.80;38.40;;;;;;4996786;28;19933;-76
2022/07/19 07:06:04;;;;;;;;;;;25.80;38.40;;;;;;4996801;28;19932;-76
2022/07/19 07:08:31;;;;;;;;;;;25.80;38.30;;;;;;4996799;28;19929;-76
2022/07/19 07:10:58;;;;;;;;;;;25.80;38.30;;;;;;4996800;28;20381;-76
2022/07/19 07:13:24;;;;;;;;;;;25.80;38.20;;;;;;4996661;28;20389;-76
2022/07/19 07:15:51;;;;;;;;;;;25.80;38.20;;;;;;4996564;28;20413;-76
2022/07/19 07:18:17;;;;;;;;;;;25.80;38.10;;;;;;4996633;28;20419;-76
2022/07/19 07:20:44;;;;;;;;;;;25.80;38.10;;;;;;4996608;28;19926;-76
2022/07/19 07:23:12;;;;;;;;;;;25.80;38.00;;;;;;4996844;28;19926;-76
2022/07/19 07:25:39;;;;;;;;;;;25.80;38.00;;;;;;4996720;28;20012;-76
2022/07/19 07:28:05;;;;;;;;;;;25.80;37.90;;;;;;4996840;28;19965;-76
2022/07/19 07:30:32;;;;;;;;;;;25.80;37.90;;;;;;4996708;28;19948;-76
2022/07/19 07:32:59;;;;;;;;;;;25.80;37.90;;;;;;4996317;28;19932;-76
2022/07/19 07:35:25;;;;;;;;;;;25.80;37.80;;;;;;4996566;28;19932;-76
2022/07/19 07:37:53;;;;;;;;;;;25.80;37.80;;;;;;4996247;28;20373;-76
2022/07/19 07:40:21;;;;;;;;;;;25.80;37.70;;;;;;4996538;28;19969;-76
2022/07/19 07:42:47;;;;;;;;;;;25.80;37.70;;;;;;4996219;28;20029;-76
2022/07/19 07:45:14;;;;;;;;;;;25.80;37.60;;;;;;4996332;28;19932;-76
2022/07/19 07:47:41;;;;;;;;;;;25.80;37.50;;;;;;4995998;28;20399;-76
2022/07/19 07:50:08;;;;;;;;;;;25.80;37.50;;;;;;4997761;28;20013;-75
2022/07/19 07:52:36;;;;;;;;;;;25.80;37.40;;;;;;5001596;28;19965;-75
2022/07/19 07:55:03;;;;;;;;;;;25.80;37.30;;;;;;5001541;28;19982;-76
2022/07/19 07:57:32;;;;;;;;;;;25.80;37.30;;;;;;5002117;28;19926;-76
2022/07/19 07:59:59;;;;;;;;;;;25.80;37.20;;;;;;5002425;28;19957;-76
2022/07/19 08:02:26;;;;;;;;;;;25.80;37.10;;;;;;5001392;28;19926;-76
2022/07/19 08:04:53;;;;;;;;;;;25.80;37.10;;;;;;5000880;28;19926;-77
2022/07/19 08:07:20;;;;;;;;;;;25.80;37.00;;;;;;5000115;28;19925;-77
2022/07/19 08:09:48;;;;;;;;;;;25.80;36.80;;;;;;5001982;28;19925;-77
2022/07/19 08:12:15;;;;;;;;;;;25.80;36.70;;;;;;5001012;28;20360;-77
2022/07/19 08:14:43;;;;;;;;;;;25.80;36.70;;;;;;5001533;28;19949;-77
2022/07/19 08:17:11;;;;;;;;;;;25.80;36.70;;;;;;5002196;28;20389;-77
2022/07/19 08:19:38;;;;;;;;;;;25.80;36.70;;;;;;5002406;28;19936;-77
2022/07/19 08:22:05;;;;;;;;;;;25.80;36.70;;;;;;5002032;28;19926;-77
2022/07/19 08:24:32;;;;;;;;;;;25.80;36.70;;;;;;5001909;28;20364;-77
2022/07/19 08:26:59;;;;;;;;;;;25.80;36.70;;;;;;5001682;28;19926;-77
2022/07/19 08:29:26;;;;;;;;;;;25.80;36.60;;;;;;5002341;28;19949;-77
2022/07/19 08:31:55;;;;;;;;;;;25.80;36.20;;;;;;5002733;28;19969;-77
2022/07/19 08:34:22;;;;;;;;;;;25.80;36.00;;;;;;5002872;28;19926;-77
2022/07/19 08:36:49;;;;;;;;;;;25.80;35.90;;;;;;5003031;28;19980;-78
2022/07/19 08:39:16;;;;;;;;;;;25.80;35.70;;;;;;5002236;28;19932;-78
2022/07/19 08:41:44;;;;;;;;;;;25.80;35.50;;;;;;5002328;28;19969;-78
2022/07/19 08:44:11;;;;;;;;;;;25.80;35.30;;;;;;5002060;28;20016;-78
2022/07/19 08:46:40;;;;;;;;;;;25.80;35.20;;;;;;5001520;28;19930;-77
2022/07/19 08:49:09;;;;;;;;;;;25.80;35.00;;;;;;5001847;28;19925;-77
2022/07/19 08:51:35;;;;;;;;;;;25.80;34.80;;;;;;5001327;28;19926;-77
2022/07/19 08:54:03;;;;;;;;;;;25.80;34.60;;;;;;5001128;28;19926;-77
2022/07/19 08:59:15;;;;;;;;;;;25.80;34.30;;;;;;5002124;28;19929;-77
2022/07/19 09:01:42;;;;;;;;;;;25.80;34.20;;;;;;5001777;28;20360;-77
2022/07/19 09:04:11;;;;;;;;;;;25.80;34.00;;;;;;5001067;28;19961;-78
2022/07/19 09:06:40;;;;;;;;;;;25.80;33.80;;;;;;4998877;28;19993;-77
2022/07/19 09:09:10;;;;;;;;;;;25.80;33.70;;;;;;5000535;28;19933;-77
2022/07/19 09:11:38;;;;;;;;;;;25.90;33.60;;;;;;5000395;28;19926;-77
2022/07/19 09:14:06;;;;;;;;;;;25.90;33.40;;;;;;5001494;28;19926;-76
2022/07/19 09:16:47;;;;;;;;;;;25.90;33.30;;;;;;5001237;28;19926;-76
2022/07/19 09:19:16;;;;;;;;;;;25.90;33.10;;;;;;5001091;28;19926;-76
2022/07/19 09:21:51;;;;;;;;;;;25.90;32.90;;;;;;5001360;28;20382;-77
2022/07/19 09:24:18;;;;;;;;;;;26.00;32.90;;;;;;5001619;28;19926;-77
2022/07/19 09:26:54;;;;;;;;;;;26.00;32.70;;;;;;5002499;28;19976;-78
2022/07/19 09:29:21;;;;;;;;;;;26.00;32.60;;;;;;5002647;28;19926;-77
2022/07/19 09:31:58;;;;;;;;;;;26.00;32.40;;;;;;5000628;28;19933;-77
2022/07/19 09:34:31;;;;;;;;;;;26.00;32.30;;;;;;5001066;28;19926;-77
2022/07/19 09:37:18;;;;;;;;;;;26.00;32.10;;;;;;5000720;28;19992;-77
2022/07/19 09:39:46;;;;;;;;;;;26.00;31.90;;;;;;5000604;28;19933;-77
2022/07/19 09:42:14;;;;;;;;;;;26.10;31.70;;;;;;4998423;28;19968;-75
2022/07/19 09:44:41;;;;;;;;;;;26.10;31.70;;;;;;5000682;28;19926;-75
2022/07/19 09:47:08;;;;;;;;;;;26.10;31.70;;;;;;5000691;28;19930;-75
2022/07/19 09:49:36;;;;;;;;;;;26.10;31.70;;;;;;4999827;28;19929;-76
2022/07/19 09:52:04;;;;;;;;;;;26.10;31.70;;;;;;5001021;28;19926;-75
2022/07/19 09:54:32;;;;;;;;;;;26.20;31.60;;;;;;5001115;28;19926;-75
2022/07/19 09:57:00;;;;;;;;;;;26.20;31.40;;;;;;5001230;28;20028;-75
2022/07/19 09:59:27;;;;;;;;;;;26.10;31.20;;;;;;5000317;28;19932;-75
2022/07/19 10:01:55;;;;;;;;;;;26.20;31.20;;;;;;5000327;28;19969;-77
2022/07/19 10:04:23;;;;;;;;;;;26.20;31.00;;;;;;4999382;28;20377;-77
2022/07/19 10:06:51;;;;;;;;;;;26.20;30.90;;;;;;4999592;28;19948;-77
2022/07/19 10:09:22;;;;;;;;;;;26.20;30.90;;;;;;4998994;28;19930;-77
2022/07/19 10:11:49;;;;;;;;;;;26.20;30.70;;;;;;4999240;28;19926;-77
2022/07/19 10:14:16;;;;;;;;;;;26.20;30.60;;;;;;4999081;28;19926;-77
2022/07/19 10:16:58;;;;;;;;;;;26.20;30.50;;;;;;4998187;28;20354;-77
2022/07/19 10:19:29;;;;;;;;;;;26.20;30.40;;;;;;4994344;28;19934;-77
2022/07/19 10:21:58;;;;;;;;;;;26.30;30.40;;;;;;4994231;28;20025;-77
2022/07/19 10:24:44;;;;;;;;;;;26.30;30.30;;;;;;4993729;28;20413;-77
2022/07/19 10:27:11;;;;;;;;;;;26.30;30.30;;;;;;4994137;28;19932;-77
2022/07/19 10:29:37;;;;;;;;;;;26.30;30.20;;;;;;4994134;28;19973;-77
2022/07/19 10:32:05;;;;;;;;;;;26.30;30.10;;;;;;4996651;28;19929;-77
2022/07/19 10:34:32;;;;;;;;;;;26.30;30.00;;;;;;4997583;28;19926;-77
2022/07/19 10:37:01;;;;;;;;;;;26.40;30.00;;;;;;4997317;28;19925;-77
2022/07/19 10:39:30;;;;;;;;;;;26.40;30.00;;;;;;4997734;28;20021;-77
2022/07/19 10:42:21;;;;;;;;;;;26.40;30.00;;;;;;4998421;28;19932;-76
2022/07/19 10:45:06;;;;;;;;;;;26.40;29.90;;;;;;4982294;28;20009;-77
2022/07/19 10:47:48;;;;;;;;;;;26.40;29.90;;;;;;4997189;28;19980;-77
2022/07/19 10:50:17;;;;;;;;;;;26.40;29.80;;;;;;4997278;28;20413;-77
2022/07/19 10:52:46;;;;;;;;;;;26.40;30.20;;;;;;4997479;28;19992;-77
2022/07/19 10:55:27;;;;;;;;;;;26.40;29.70;;;;;;4997072;28;20416;-77
2022/07/19 10:58:07;;;;;;;;;;;26.40;29.60;;;;;;4997452;28;19929;-77
2022/07/19 11:00:43;;;;;;;;;;;26.40;29.60;;;;;;4997582;28;19948;-77
2022/07/19 11:03:28;;;;;;;;;;;26.40;29.50;;;;;;4997204;28;20399;-77
2022/07/19 11:05:56;;;;;;;;;;;26.40;29.50;;;;;;4997107;28;20456;-77
2022/07/19 11:08:32;;;;;;;;;;;26.50;29.50;;;;;;4997138;28;20020;-77
2022/07/19 11:11:06;;;;;;;;;;;26.50;29.50;;;;;;4997292;28;19926;-77
2022/07/19 11:13:32;;;;;;;;;;;26.40;29.40;;;;;;4997095;28;19926;-77
2022/07/19 11:16:00;;;;;;;;;;;26.50;29.30;;;;;;4996859;28;19926;-77
2022/07/19 11:18:27;;;;;;;;;;;26.50;29.30;;;;;;4996701;28;19926;-77
2022/07/19 11:20:57;;;;;;;;;;;26.50;29.30;;;;;;4996974;28;20020;-77
2022/07/19 11:23:23;;;;;;;;;;;26.60;29.30;;;;;;4996587;28;19932;-77
2022/07/19 11:25:52;;;;;;;;;;;26.50;29.20;;;;;;4997126;28;19987;-77
2022/07/19 11:28:21;;;;;;;;;;;26.60;29.20;;;;;;4997025;28;19930;-78
2022/07/19 11:30:48;;;;;;;;;;;26.60;29.20;;;;;;4997674;28;19930;-77
2022/07/19 11:33:18;;;;;;;;;;;26.60;29.20;;;;;;4997174;28;19932;-77
2022/07/19 11:35:55;;;;;;;;;;;26.60;29.10;;;;;;4997391;28;19926;-76
2022/07/19 11:38:22;;;;;;;;;;;26.60;29.10;;;;;;4997024;28;19973;-77
2022/07/19 11:40:49;;;;;;;;;;;26.60;29.10;;;;;;4997297;28;19976;-77
2022/07/19 11:43:17;;;;;;;;;;;26.60;29.10;;;;;;4996429;28;19973;-76
2022/07/19 11:45:44;;;;;;;;;;;26.60;29.00;;;;;;4996384;28;20403;-77
2022/07/19 11:48:11;;;;;;;;;;;26.60;29.00;;;;;;4996472;28;20020;-77
2022/07/19 11:50:40;;;;;;;;;;;26.60;29.00;;;;;;4996422;28;19933;-77
2022/07/19 11:53:07;;;;;;;;;;;26.60;29.00;;;;;;4996284;28;20333;-77
2022/07/19 11:55:36;;;;;;;;;;;26.70;29.00;;;;;;4998171;28;19925;-77
2022/07/19 11:58:07;;;;;;;;;;;26.70;29.00;;;;;;4996189;28;20352;-77
2022/07/19 12:00:35;;;;;;;;;;;26.70;29.00;;;;;;4995954;28;19926;-76
2022/07/19 12:03:04;;;;;;;;;;;26.70;29.00;;;;;;4996892;28;19926;-76
2022/07/19 12:05:32;;;;;;;;;;;26.70;29.00;;;;;;4996890;28;19929;-77
2022/07/19 12:08:00;;;;;;;;;;;26.60;28.90;;;;;;4996417;28;19930;-77
2022/07/19 12:10:38;;;;;;;;;;;26.70;29.00;;;;;;4998305;28;19925;-78
2022/07/19 12:13:05;;;;;;;;;;;26.70;28.90;;;;;;4997626;28;19953;-78
2022/07/19 12:15:53;;;;;;;;;;;26.70;28.90;;;;;;4996994;28;20415;-78
2022/07/19 12:18:20;;;;;;;;;;;26.70;28.90;;;;;;4998208;28;20033;-78
2022/07/19 12:21:02;;;;;;;;;;;26.70;28.90;;;;;;4997832;28;19932;-78
2022/07/19 12:23:29;;;;;;;;;;;26.70;28.90;;;;;;4997008;28;19961;-77
2022/07/19 12:26:02;;;;;;;;;;;26.70;28.80;;;;;;4997638;28;19962;-78
2022/07/19 12:28:29;;;;;;;;;;;26.70;28.80;;;;;;4998002;28;20465;-78
2022/07/19 12:31:03;;;;;;;;;;;26.70;28.80;;;;;;4998281;28;19925;-78
2022/07/19 12:33:29;;;;;;;;;;;26.70;28.80;;;;;;4997418;28;19930;-78
2022/07/19 12:35:56;;;;;;;;;;;26.70;28.80;;;;;;4999330;28;20012;-79
2022/07/19 12:38:28;;;;;;;;;;;26.70;28.70;;;;;;4998238;28;19925;-79
2022/07/19 12:41:05;;;;;;;;;;;26.80;28.80;;;;;;4995697;28;20278;-77
2022/07/19 12:43:32;;;;;;;;;;;26.80;28.80;;;;;;4996122;28;19961;-77
2022/07/19 12:46:01;;;;;;;;;;;26.80;28.80;;;;;;4995681;28;19925;-77
2022/07/19 12:48:29;;;;;;;;;;;26.80;28.70;;;;;;4995827;28;20024;-77
2022/07/19 12:50:57;;;;;;;;;;;26.80;28.80;;;;;;4995849;28;19932;-76
2022/07/19 12:53:24;;;;;;;;;;;26.80;28.80;;;;;;4994734;28;20464;-76
2022/07/19 12:55:51;;;;;;;;;;;26.80;28.80;;;;;;4996559;28;19986;-78
2022/07/19 12:59:38;;;;;;;;;;;26.80;28.70;;;;;;4996867;28;19932;-78
2022/07/19 13:01:08;;;;;;;;;;;26.80;28.70;;;;;;4996343;28;20400;-78
2022/07/19 13:03:36;;;;;;;;;;;26.90;28.80;;;;;;4995972;28;19932;-78
2022/07/19 13:06:03;;;;;;;;;;;26.90;28.80;;;;;;4996793;28;20008;-78
2022/07/19 13:08:29;;;;;;;;;;;26.90;28.70;;;;;;4995742;28;20288;-78
2022/07/19 13:10:56;;;;;;;;;;;26.90;28.70;;;;;;4996329;28;20004;-78
2022/07/19 13:13:23;;;;;;;;;;;26.90;28.80;;;;;;4995572;28;20271;-78
2022/07/19 13:15:50;;;;;;;;;;;26.90;28.70;;;;;;4995372;28;19926;-78
2022/07/19 13:18:16;;;;;;;;;;;26.90;28.70;;;;;;4995880;28;19926;-78
2022/07/19 13:20:44;;;;;;;;;;;26.90;28.70;;;;;;4996026;28;20017;-78
2022/07/19 13:23:11;;;;;;;;;;;27.00;28.80;;;;;;4996323;28;20017;-78
2022/07/19 13:25:38;;;;;;;;;;;27.00;28.80;;;;;;4995776;28;20304;-78
2022/07/19 13:28:05;;;;;;;;;;;27.00;28.80;;;;;;4996681;28;19948;-78
2022/07/19 13:30:31;;;;;;;;;;;27.00;28.70;;;;;;4995686;28;20385;-77
2022/07/19 13:32:58;;;;;;;;;;;27.00;28.70;;;;;;4996045;28;19968;-78
2022/07/19 13:35:25;;;;;;;;;;;27.10;28.80;;;;;;4995666;28;20345;-78
2022/07/19 13:37:53;;;;;;;;;;;27.10;28.70;;;;;;4996385;28;20440;-78
2022/07/19 13:40:19;;;;;;;;;;;27.10;28.70;;;;;;4996061;28;20028;-78
2022/07/19 13:42:46;;;;;;;;;;;27.10;28.70;;;;;;4995113;28;19957;-76
2022/07/19 13:45:13;;;;;;;;;;;27.10;28.70;;;;;;4994112;28;20408;-77
2022/07/19 13:47:39;;;;;;;;;;;27.10;28.70;;;;;;4994265;28;20380;-77
2022/07/19 13:50:07;;;;;;;;;;;27.10;28.70;;;;;;4994553;28;20001;-76
2022/07/19 13:52:34;;;;;;;;;;;27.10;28.70;;;;;;4994432;28;19933;-77
2022/07/19 13:55:02;;;;;;;;;;;27.10;28.70;;;;;;4994334;28;19961;-77
2022/07/19 13:57:30;;;;;;;;;;;27.20;28.70;;;;;;4996294;28;19926;-79
2022/07/19 13:59:56;;;;;;;;;;;27.20;28.70;;;;;;4996694;28;20020;-79
2022/07/19 14:02:23;;;;;;;;;;;27.20;28.70;;;;;;4996016;28;19984;-78
2022/07/19 14:04:51;;;;;;;;;;;27.20;28.70;;;;;;4996334;28;19932;-78
2022/07/19 14:07:17;;;;;;;;;;;27.20;28.70;;;;;;4999560;28;20274;-78
2022/07/19 14:09:44;;;;;;;;;;;27.20;29.10;;;;;;4999046;28;19979;-79
2022/07/19 14:12:12;;;;;;;;;;;27.20;28.60;;;;;;5000645;28;19980;-79
2022/07/19 14:14:39;;;;;;;;;;;27.20;28.60;;;;;;5000576;28;19977;-78
2022/07/19 14:17:06;;;;;;;;;;;27.20;28.60;;;;;;5000909;28;20335;-78
2022/07/19 14:19:35;;;;;;;;;;;27.20;28.60;;;;;;5000525;28;20016;-80
2022/07/19 14:22:01;;;;;;;;;;;27.20;28.60;;;;;;5001133;28;19936;-78
2022/07/19 14:24:28;;;;;;;;;;;27.20;28.60;;;;;;5000986;28;20360;-79
2022/07/19 14:26:55;;;;;;;;;;;27.20;28.50;;;;;;5001709;28;20352;-79
2022/07/19 14:29:23;;;;;;;;;;;27.20;28.50;;;;;;5000648;28;19929;-79
2022/07/19 14:31:49;;;;;;;;;;;27.20;28.50;;;;;;5000284;28;20469;-78
2022/07/19 14:34:16;;;;;;;;;;;27.20;28.50;;;;;;5000863;28;20009;-79
2022/07/19 14:36:43;;;;;;;;;;;27.20;28.50;;;;;;5001556;28;20444;-78
2022/07/19 14:39:10;;;;;;;;;;;27.20;28.40;;;;;;5000515;28;20433;-79
2022/07/19 14:41:37;;;;;;;;;;;27.20;28.40;;;;;;5001146;28;19926;-79
2022/07/19 14:44:05;;;;;;;;;;;27.20;28.30;;;;;;5000908;28;20016;-79
2022/07/19 14:46:33;;;;;;;;;;;27.20;28.30;;;;;;5001332;28;19940;-79
2022/07/19 14:49:00;;;;;;;;;;;27.20;28.30;;;;;;5000343;28;20004;-78
2022/07/19 14:51:26;;;;;;;;;;;27.10;28.20;;;;;;5000486;28;19933;-79
2022/07/19 14:53:53;;;;;;;;;;;27.10;28.20;;;;;;4999982;28;20028;-79
2022/07/19 14:56:20;;;;;;;;;;;27.10;28.20;;;;;;5000835;28;19932;-79
2022/07/19 14:58:46;;;;;;;;;;;27.10;28.10;;;;;;4999597;28;19926;-79
2022/07/19 15:01:13;;;;;;;;;;;27.10;28.10;;;;;;5001281;28;20433;-79
2022/07/19 15:03:41;;;;;;;;;;;27.10;28.10;;;;;;5000052;28;20464;-80
2022/07/19 15:06:08;;;;;;;;;;;27.10;28.10;;;;;;5005371;28;19986;-80
2022/07/19 15:08:34;;;;;;;;;;;27.10;28.10;;;;;;4998658;28;19965;-78
2022/07/19 15:11:01;;;;;;;;;;;27.10;28.10;;;;;;4998845;28;19994;-78
2022/07/19 15:13:27;;;;;;;;;;;27.10;28.50;;;;;;4998377;28;19926;-79
2022/07/19 15:15:54;;;;;;;;;;;27.10;28.00;;;;;;4998223;28;19981;-79
2022/07/19 15:18:21;;;;;;;;;;;27.10;28.00;;;;;;4997885;28;19933;-79
2022/07/19 15:20:49;;;;;;;;;;;27.10;27.90;;;;;;4999182;28;20398;-79
2022/07/19 15:23:16;;;;;;;;;;;27.10;27.90;;;;;;5001104;28;19976;-79
2022/07/19 15:25:42;;;;;;;;;;;27.10;27.90;;;;;;4998174;28;20351;-78
2022/07/19 15:28:09;;;;;;;;;;;27.10;27.90;;;;;;4998226;28;20020;-78
2022/07/19 15:30:36;;;;;;;;;;;27.00;27.90;;;;;;4998340;28;20361;-79
2022/07/19 15:33:02;;;;;;;;;;;27.00;27.90;;;;;;4999056;28;20448;-79
2022/07/19 15:35:29;;;;;;;;;;;27.10;27.90;;;;;;4999024;28;19947;-79
2022/07/19 15:37:57;;;;;;;;;;;27.10;28.40;;;;;;4998583;28;19981;-79
2022/07/19 15:40:24;;;;;;;;;;;27.10;27.90;;;;;;4997939;28;20020;-78
2022/07/19 15:42:51;;;;;;;;;;;27.10;27.90;;;;;;4997467;28;19965;-78
2022/07/19 15:45:18;;;;;;;;;;;27.10;27.90;;;;;;4997464;28;19925;-78
2022/07/19 15:47:45;;;;;;;;;;;27.10;27.90;;;;;;4997760;28;20321;-78
2022/07/19 15:50:12;;;;;;;;;;;27.00;27.90;;;;;;4997316;28;20016;-78
2022/07/19 15:52:39;;;;;;;;;;;27.00;27.90;;;;;;4997357;28;20017;-77
2022/07/19 15:55:08;;;;;;;;;;;27.00;27.80;;;;;;4996919;28;20008;-78
2022/07/19 15:57:35;;;;;;;;;;;27.00;27.80;;;;;;4998023;28;20349;-78
2022/07/19 16:00:02;;;;;;;;;;;27.00;27.90;;;;;;4998493;28;20352;-78
2022/07/19 16:02:28;;;;;;;;;;;27.00;27.90;;;;;;4999100;28;19925;-80
2022/07/19 16:04:55;;;;;;;;;;;27.00;27.90;;;;;;4999612;28;19976;-80
2022/07/19 16:07:22;;;;;;;;;;;27.00;27.90;;;;;;4997873;28;19976;-80
2022/07/19 16:09:48;;;;;;;;;;;27.00;27.90;;;;;;4997969;28;19976;-78
2022/07/19 16:12:16;;;;;;;;;;;27.00;27.90;;;;;;4997077;28;19926;-78
2022/07/19 16:14:43;;;;;;;;;;;27.00;27.90;;;;;;4996355;28;20025;-77
2022/07/19 16:17:10;;;;;;;;;;;27.00;27.90;;;;;;4996448;28;19969;-77
2022/07/19 16:19:37;;;;;;;;;;;27.00;27.90;;;;;;4996861;28;19934;-77
2022/07/19 16:22:03;;;;;;;;;;;27.00;27.90;;;;;;4995676;28;19926;-77
2022/07/19 16:24:30;;;;;;;;;;;27.00;27.90;;;;;;4996167;28;19932;-77
2022/07/19 16:26:57;;;;;;;;;;;27.00;27.90;;;;;;4996295;28;20440;-77
2022/07/19 16:29:25;;;;;;;;;;;27.00;27.90;;;;;;4996100;28;19933;-78
2022/07/19 16:31:51;;;;;;;;;;;27.00;27.90;;;;;;4996173;28;19936;-78
2022/07/19 16:34:18;;;;;;;;;;;27.00;27.90;;;;;;4997244;28;20405;-80
2022/07/19 16:36:45;;;;;;;;;;;27.00;27.80;;;;;;4997080;28;20009;-79
2022/07/19 16:39:12;;;;;;;;;;;27.00;27.70;;;;;;4996685;28;20163;-79
2022/07/19 16:41:38;;;;;;;;;;;27.00;27.70;;;;;;4996596;28;19926;-79
2022/07/19 16:44:05;;;;;;;;;;;27.00;27.70;;;;;;4996940;28;19972;-79
2022/07/19 16:46:33;;;;;;;;;;;27.00;27.70;;;;;;4996662;28;19930;-79
2022/07/19 16:49:00;;;;;;;;;;;27.00;27.70;;;;;;4996405;28;19926;-80
2022/07/19 16:51:27;;;;;;;;;;;27.00;27.70;;;;;;4996119;28;19968;-80
2022/07/19 16:53:53;;;;;;;;;;;27.00;27.70;;;;;;4996473;28;19926;-80
2022/07/19 16:56:20;;;;;;;;;;;27.00;27.70;;;;;;4996314;28;20009;-80
2022/07/19 16:58:47;;;;;;;;;;;27.00;27.70;;;;;;4996063;28;20333;-80
2022/07/19 17:01:14;;;;;;;;;;;27.00;27.70;;;;;;4996183;28;20385;-80
2022/07/19 17:03:42;;;;;;;;;;;27.00;27.70;;;;;;4996179;28;20446;-80
2022/07/19 17:06:08;;;;;;;;;;;27.00;27.70;;;;;;4996791;28;19947;-80
2022/07/19 17:08:36;;;;;;;;;;;27.00;27.70;;;;;;4997435;28;20037;-79
2022/07/19 17:11:03;;;;;;;;;;;27.00;27.70;;;;;;4997723;28;20024;-80
2022/07/19 17:13:29;;;;;;;;;;;27.00;27.70;;;;;;4997663;28;19933;-79
2022/07/19 17:15:57;;;;;;;;;;;27.00;27.70;;;;;;4997166;28;19933;-79
2022/07/19 17:18:24;;;;;;;;;;;27.00;27.50;;;;;;4996692;28;20042;-79
2022/07/19 17:20:52;;;;;;;;;;;27.00;27.50;;;;;;4998070;28;19984;-80
2022/07/19 17:23:18;;;;;;;;;;;27.00;27.40;;;;;;4998743;28;19981;-78
2022/07/19 17:25:45;;;;;;;;;;;27.00;27.40;;;;;;4997327;28;19997;-79
2022/07/19 17:28:12;;;;;;;;;;;27.00;27.30;;;;;;4998580;28;20016;-79
2022/07/19 17:30:38;;;;;;;;;;;27.00;27.30;;;;;;4997843;28;19980;-79
2022/07/19 17:33:05;;;;;;;;;;;27.10;27.30;;;;;;4999282;28;19949;-79
2022/07/19 17:35:32;;;;;;;;;;;27.10;27.20;;;;;;4998935;28;19937;-79
2022/07/19 17:38:02;;;;;;;;;;;27.10;27.20;;;;;;4999223;28;19993;-80
2022/07/19 17:40:29;;;;;;;;;;;27.10;27.10;;;;;;5001951;28;19930;-79
2022/07/19 17:42:56;;;;;;;;;;;27.10;27.10;;;;;;5004432;28;20016;-79
2022/07/19 17:45:22;;;;;;;;;;;27.10;27.00;;;;;;5004585;28;19977;-79
2022/07/19 17:47:49;;;;;;;;;;;27.10;27.00;;;;;;5004848;28;20020;-79
2022/07/19 17:50:16;;;;;;;;;;;27.10;27.40;;;;;;5003733;28;20249;-79
2022/07/19 17:52:42;;;;;;;;;;;27.10;26.90;;;;;;5004401;28;20020;-79
2022/07/19 17:55:10;;;;;;;;;;;27.10;26.90;;;;;;5002487;28;19925;-79
2022/07/19 17:57:37;;;;;;;;;;;27.10;26.90;;;;;;5002552;28;19926;-79
2022/07/19 18:00:04;;;;;;;;;;;27.10;26.90;;;;;;5002698;28;19932;-79
2022/07/19 18:02:31;;;;;;;;;;;27.10;26.90;;;;;;5002734;28;19925;-79
2022/07/19 18:04:58;;;;;;;;;;;27.10;26.90;;;;;;5004371;28;19926;-79
2022/07/19 18:07:25;;;;;;;;;;;27.10;26.90;;;;;;5002387;28;20025;-79
2022/07/19 18:09:51;;;;;;;;;;;27.00;26.80;;;;;;5002600;28;19968;-79
2022/07/19 18:12:19;;;;;;;;;;;27.10;26.90;;;;;;5003307;28;19969;-79
2022/07/19 18:14:46;;;;;;;;;;;27.00;26.80;;;;;;5002417;28;19925;-79
2022/07/19 18:17:13;;;;;;;;;;;27.00;26.80;;;;;;5003003;28;19932;-80
2022/07/19 18:19:39;;;;;;;;;;;27.00;26.80;;;;;;5002962;28;19926;-80
2022/07/19 18:22:06;;;;;;;;;;;27.00;26.90;;;;;;5003325;28;19965;-79
2022/07/19 18:24:33;;;;;;;;;;;27.00;26.80;;;;;;5002116;28;19983;-79
2022/07/19 18:26:59;;;;;;;;;;;27.00;26.90;;;;;;5002380;28;20375;-79
2022/07/19 18:29:28;;;;;;;;;;;27.00;26.90;;;;;;5001867;28;19926;-80
2022/07/19 18:31:54;;;;;;;;;;;27.00;26.90;;;;;;5001642;28;20025;-79
2022/07/19 18:34:21;;;;;;;;;;;27.00;26.90;;;;;;5001603;28;19925;-80
2022/07/19 18:36:50;;;;;;;;;;;27.00;26.90;;;;;;5002207;28;20012;-80